sensor_id;sensor_type;location;lat;lon;timestamp;temperature;humidity
12901;DHT22;6518;50.930;5.344;2023-04-26T00:01:33;6.80;76.30
12901;DHT22;6518;50.930;5.344;2023-04-26T00:04:01;6.80;76.50
12901;DHT22;6518;50.930;5.344;2023-04-26T00:06:29;6.80;76.80
12901;DHT22;6518;50.930;5.344;2023-04-26T00:08:56;6.70;77.00
12901;DHT22;6518;50.930;5.344;2023-04-26T00:11:23;6.70;77.10
12901;DHT22;6518;50.930;5.344;2023-04-26T00:13:50;6.80;77.30
12901;DHT22;6518;50.930;5.344;2023-04-26T00:16:17;6.80;77.40
12901;DHT22;6518;50.930;5.344;2023-04-26T00:18:45;6.80;77.80
12901;DHT22;6518;50.930;5.344;2023-04-26T00:21:13;6.70;77.90
12901;DHT22;6518;50.930;5.344;2023-04-26T00:23:42;6.70;78.10
12901;DHT22;6518;50.930;5.344;2023-04-26T00:26:09;6.70;78.10
12901;DHT22;6518;50.930;5.344;2023-04-26T00:28:36;6.60;78.30
12901;DHT22;6518;50.930;5.344;2023-04-26T00:31:03;6.50;78.50
12901;DHT22;6518;50.930;5.344;2023-04-26T00:33:30;6.50;78.90
12901;DHT22;6518;50.930;5.344;2023-04-26T00:35:57;6.40;79.10
12901;DHT22;6518;50.930;5.344;2023-04-26T00:38:24;6.40;79.30
12901;DHT22;6518;50.930;5.344;2023-04-26T00:40:52;6.50;79.30
12901;DHT22;6518;50.930;5.344;2023-04-26T00:43:19;6.50;78.80
12901;DHT22;6518;50.930;5.344;2023-04-26T00:45:46;6.50;78.90
12901;DHT22;6518;50.930;5.344;2023-04-26T00:48:14;6.50;79.00
12901;DHT22;6518;50.930;5.344;2023-04-26T00:50:41;6.50;79.10
12901;DHT22;6518;50.930;5.344;2023-04-26T00:53:08;6.40;79.20
12901;DHT22;6518;50.930;5.344;2023-04-26T00:55:39;6.40;79.40
12901;DHT22;6518;50.930;5.344;2023-04-26T00:58:07;6.40;79.50
12901;DHT22;6518;50.930;5.344;2023-04-26T01:00:34;6.40;79.70
12901;DHT22;6518;50.930;5.344;2023-04-26T01:03:02;6.40;79.70
12901;DHT22;6518;50.930;5.344;2023-04-26T01:05:29;6.40;79.80
12901;DHT22;6518;50.930;5.344;2023-04-26T01:07:56;6.40;79.70
12901;DHT22;6518;50.930;5.344;2023-04-26T01:10:24;6.30;79.60
12901;DHT22;6518;50.930;5.344;2023-04-26T01:12:52;6.30;79.90
12901;DHT22;6518;50.930;5.344;2023-04-26T01:15:20;6.20;81.10
12901;DHT22;6518;50.930;5.344;2023-04-26T01:17:48;6.20;80.30
12901;DHT22;6518;50.930;5.344;2023-04-26T01:20:15;6.20;80.40
12901;DHT22;6518;50.930;5.344;2023-04-26T01:22:43;6.20;80.60
12901;DHT22;6518;50.930;5.344;2023-04-26T01:25:11;6.20;80.50
12901;DHT22;6518;50.930;5.344;2023-04-26T01:27:38;6.20;80.60
12901;DHT22;6518;50.930;5.344;2023-04-26T01:30:07;6.20;80.60
12901;DHT22;6518;50.930;5.344;2023-04-26T01:32:34;6.20;80.80
12901;DHT22;6518;50.930;5.344;2023-04-26T01:35:03;6.20;80.70
12901;DHT22;6518;50.930;5.344;2023-04-26T01:37:31;6.20;80.50
12901;DHT22;6518;50.930;5.344;2023-04-26T01:40:00;6.20;80.40
12901;DHT22;6518;50.930;5.344;2023-04-26T01:42:27;6.20;80.50
12901;DHT22;6518;50.930;5.344;2023-04-26T01:44:54;6.20;80.40
12901;DHT22;6518;50.930;5.344;2023-04-26T01:47:20;6.20;80.40
12901;DHT22;6518;50.930;5.344;2023-04-26T01:49:47;6.20;80.50
12901;DHT22;6518;50.930;5.344;2023-04-26T01:52:14;6.10;80.50
12901;DHT22;6518;50.930;5.344;2023-04-26T01:54:41;6.10;80.70
12901;DHT22;6518;50.930;5.344;2023-04-26T01:57:09;6.10;80.70
12901;DHT22;6518;50.930;5.344;2023-04-26T01:59:36;6.10;80.60
12901;DHT22;6518;50.930;5.344;2023-04-26T02:02:03;6.10;80.70
12901;DHT22;6518;50.930;5.344;2023-04-26T02:04:31;6.10;80.80
12901;DHT22;6518;50.930;5.344;2023-04-26T02:06:58;6.10;81.00
12901;DHT22;6518;50.930;5.344;2023-04-26T02:09:25;6.00;81.00
12901;DHT22;6518;50.930;5.344;2023-04-26T02:11:52;6.00;80.90
12901;DHT22;6518;50.930;5.344;2023-04-26T02:14:20;6.00;81.00
12901;DHT22;6518;50.930;5.344;2023-04-26T02:16:47;6.00;80.90
12901;DHT22;6518;50.930;5.344;2023-04-26T02:19:14;5.80;81.00
12901;DHT22;6518;50.930;5.344;2023-04-26T02:21:51;5.70;81.60
12901;DHT22;6518;50.930;5.344;2023-04-26T02:24:18;5.70;81.70
12901;DHT22;6518;50.930;5.344;2023-04-26T02:26:46;5.60;81.80
12901;DHT22;6518;50.930;5.344;2023-04-26T02:29:13;5.60;82.90
12901;DHT22;6518;50.930;5.344;2023-04-26T02:31:42;5.70;82.20
12901;DHT22;6518;50.930;5.344;2023-04-26T02:34:09;5.70;82.20
12901;DHT22;6518;50.930;5.344;2023-04-26T02:36:35;5.70;82.10
12901;DHT22;6518;50.930;5.344;2023-04-26T02:39:02;5.70;82.10
12901;DHT22;6518;50.930;5.344;2023-04-26T02:41:31;5.70;82.20
12901;DHT22;6518;50.930;5.344;2023-04-26T02:43:58;5.70;83.10
12901;DHT22;6518;50.930;5.344;2023-04-26T02:46:25;5.70;82.40
12901;DHT22;6518;50.930;5.344;2023-04-26T02:48:53;5.70;81.70
12901;DHT22;6518;50.930;5.344;2023-04-26T02:51:20;5.70;82.20
12901;DHT22;6518;50.930;5.344;2023-04-26T02:53:47;5.70;82.20
12901;DHT22;6518;50.930;5.344;2023-04-26T02:56:14;5.70;83.20
12901;DHT22;6518;50.930;5.344;2023-04-26T02:58:41;5.70;82.40
12901;DHT22;6518;50.930;5.344;2023-04-26T03:01:08;5.70;82.20
12901;DHT22;6518;50.930;5.344;2023-04-26T03:03:35;5.70;82.00
12901;DHT22;6518;50.930;5.344;2023-04-26T03:06:04;5.60;82.10
12901;DHT22;6518;50.930;5.344;2023-04-26T03:08:31;5.50;82.30
12901;DHT22;6518;50.930;5.344;2023-04-26T03:10:59;5.50;82.40
12901;DHT22;6518;50.930;5.344;2023-04-26T03:13:27;5.40;82.60
12901;DHT22;6518;50.930;5.344;2023-04-26T03:15:54;5.30;82.80
12901;DHT22;6518;50.930;5.344;2023-04-26T03:18:20;5.30;83.30
12901;DHT22;6518;50.930;5.344;2023-04-26T03:20:47;5.30;83.30
12901;DHT22;6518;50.930;5.344;2023-04-26T03:23:15;5.30;83.20
12901;DHT22;6518;50.930;5.344;2023-04-26T03:25:42;5.20;83.50
12901;DHT22;6518;50.930;5.344;2023-04-26T03:28:09;5.20;83.70
12901;DHT22;6518;50.930;5.344;2023-04-26T03:30:36;5.10;83.90
12901;DHT22;6518;50.930;5.344;2023-04-26T03:33:03;5.10;84.00
12901;DHT22;6518;50.930;5.344;2023-04-26T03:35:30;6.10;84.60
12901;DHT22;6518;50.930;5.344;2023-04-26T03:37:57;5.10;83.90
12901;DHT22;6518;50.930;5.344;2023-04-26T03:40:25;5.10;84.10
12901;DHT22;6518;50.930;5.344;2023-04-26T03:42:52;5.10;84.10
12901;DHT22;6518;50.930;5.344;2023-04-26T03:45:19;5.10;84.20
12901;DHT22;6518;50.930;5.344;2023-04-26T03:47:46;5.10;84.30
12901;DHT22;6518;50.930;5.344;2023-04-26T03:50:12;5.10;83.50
12901;DHT22;6518;50.930;5.344;2023-04-26T03:52:39;5.10;84.20
12901;DHT22;6518;50.930;5.344;2023-04-26T03:55:07;5.10;84.20
12901;DHT22;6518;50.930;5.344;2023-04-26T03:57:37;5.10;84.30
12901;DHT22;6518;50.930;5.344;2023-04-26T04:00:05;5.10;84.40
12901;DHT22;6518;50.930;5.344;2023-04-26T04:02:34;5.10;84.30
12901;DHT22;6518;50.930;5.344;2023-04-26T04:05:01;5.10;84.40
12901;DHT22;6518;50.930;5.344;2023-04-26T04:07:28;5.10;84.60
12901;DHT22;6518;50.930;5.344;2023-04-26T04:09:57;5.10;84.40
12901;DHT22;6518;50.930;5.344;2023-04-26T04:12:24;5.10;84.60
12901;DHT22;6518;50.930;5.344;2023-04-26T04:14:52;5.10;84.60
12901;DHT22;6518;50.930;5.344;2023-04-26T04:17:19;5.10;84.70
12901;DHT22;6518;50.930;5.344;2023-04-26T04:19:46;5.10;85.00
12901;DHT22;6518;50.930;5.344;2023-04-26T04:22:13;5.00;85.20
12901;DHT22;6518;50.930;5.344;2023-04-26T04:24:40;5.00;85.30
12901;DHT22;6518;50.930;5.344;2023-04-26T04:27:08;5.00;85.40
12901;DHT22;6518;50.930;5.344;2023-04-26T04:29:36;5.00;86.30
12901;DHT22;6518;50.930;5.344;2023-04-26T04:32:05;5.00;85.50
12901;DHT22;6518;50.930;5.344;2023-04-26T04:34:33;5.10;85.30
12901;DHT22;6518;50.930;5.344;2023-04-26T04:37:00;5.10;85.20
12901;DHT22;6518;50.930;5.344;2023-04-26T04:39:28;5.10;85.70
12901;DHT22;6518;50.930;5.344;2023-04-26T04:41:55;5.10;85.00
12901;DHT22;6518;50.930;5.344;2023-04-26T04:44:23;5.00;85.40
12901;DHT22;6518;50.930;5.344;2023-04-26T04:46:51;5.00;86.30
12901;DHT22;6518;50.930;5.344;2023-04-26T04:49:20;5.10;85.50
12901;DHT22;6518;50.930;5.344;2023-04-26T04:51:47;5.10;85.40
12901;DHT22;6518;50.930;5.344;2023-04-26T04:54:15;5.10;85.30
12901;DHT22;6518;50.930;5.344;2023-04-26T04:56:42;5.20;86.10
12901;DHT22;6518;50.930;5.344;2023-04-26T04:59:09;5.20;84.80
12901;DHT22;6518;50.930;5.344;2023-04-26T05:01:36;5.20;85.10
12901;DHT22;6518;50.930;5.344;2023-04-26T05:04:04;5.30;85.30
12901;DHT22;6518;50.930;5.344;2023-04-26T05:06:33;5.30;85.30
12901;DHT22;6518;50.930;5.344;2023-04-26T05:09:00;5.30;85.10
12901;DHT22;6518;50.930;5.344;2023-04-26T05:11:30;5.40;84.90
12901;DHT22;6518;50.930;5.344;2023-04-26T05:13:56;5.40;84.70
12901;DHT22;6518;50.930;5.344;2023-04-26T05:16:24;5.40;84.60
12901;DHT22;6518;50.930;5.344;2023-04-26T05:18:53;5.50;84.40
12901;DHT22;6518;50.930;5.344;2023-04-26T05:21:22;5.50;84.10
12901;DHT22;6518;50.930;5.344;2023-04-26T05:23:52;5.60;83.90
12901;DHT22;6518;50.930;5.344;2023-04-26T05:26:20;5.60;83.70
12901;DHT22;6518;50.930;5.344;2023-04-26T05:28:48;5.60;83.70
12901;DHT22;6518;50.930;5.344;2023-04-26T05:31:15;5.70;83.60
12901;DHT22;6518;50.930;5.344;2023-04-26T05:33:41;5.70;83.40
12901;DHT22;6518;50.930;5.344;2023-04-26T05:36:09;5.70;84.00
12901;DHT22;6518;50.930;5.344;2023-04-26T05:38:35;5.80;82.90
12901;DHT22;6518;50.930;5.344;2023-04-26T05:41:04;5.70;83.30
12901;DHT22;6518;50.930;5.344;2023-04-26T05:43:31;5.80;83.50
12901;DHT22;6518;50.930;5.344;2023-04-26T05:45:57;5.90;83.30
12901;DHT22;6518;50.930;5.344;2023-04-26T05:48:24;5.90;82.80
12901;DHT22;6518;50.930;5.344;2023-04-26T05:50:51;5.90;82.70
12901;DHT22;6518;50.930;5.344;2023-04-26T05:53:19;5.90;83.40
12901;DHT22;6518;50.930;5.344;2023-04-26T05:55:46;5.90;83.70
12901;DHT22;6518;50.930;5.344;2023-04-26T05:58:14;5.90;83.90
12901;DHT22;6518;50.930;5.344;2023-04-26T06:00:41;6.00;83.80
12901;DHT22;6518;50.930;5.344;2023-04-26T06:03:08;6.00;83.80
12901;DHT22;6518;50.930;5.344;2023-04-26T06:05:35;6.10;83.80
12901;DHT22;6518;50.930;5.344;2023-04-26T06:08:03;6.10;83.70
12901;DHT22;6518;50.930;5.344;2023-04-26T06:10:30;6.20;83.80
12901;DHT22;6518;50.930;5.344;2023-04-26T06:12:57;6.20;83.80
12901;DHT22;6518;50.930;5.344;2023-04-26T06:15:25;6.30;83.40
12901;DHT22;6518;50.930;5.344;2023-04-26T06:17:53;6.40;83.20
12901;DHT22;6518;50.930;5.344;2023-04-26T06:20:20;6.40;83.20
12901;DHT22;6518;50.930;5.344;2023-04-26T06:22:47;6.50;82.90
12901;DHT22;6518;50.930;5.344;2023-04-26T06:25:15;6.50;82.90
12901;DHT22;6518;50.930;5.344;2023-04-26T06:27:42;6.60;82.90
12901;DHT22;6518;50.930;5.344;2023-04-26T06:30:09;6.70;82.60
12901;DHT22;6518;50.930;5.344;2023-04-26T06:32:40;6.80;82.40
12901;DHT22;6518;50.930;5.344;2023-04-26T06:35:08;6.70;82.40
12901;DHT22;6518;50.930;5.344;2023-04-26T06:37:36;6.80;82.50
12901;DHT22;6518;50.930;5.344;2023-04-26T06:40:04;6.90;82.50
12901;DHT22;6518;50.930;5.344;2023-04-26T06:42:31;7.00;82.30
12901;DHT22;6518;50.930;5.344;2023-04-26T06:44:58;7.00;82.00
12901;DHT22;6518;50.930;5.344;2023-04-26T06:47:25;7.00;81.90
12901;DHT22;6518;50.930;5.344;2023-04-26T06:49:54;7.10;82.00
12901;DHT22;6518;50.930;5.344;2023-04-26T06:52:21;7.10;81.80
12901;DHT22;6518;50.930;5.344;2023-04-26T06:54:48;7.20;81.80
12901;DHT22;6518;50.930;5.344;2023-04-26T06:57:15;7.20;81.70
12901;DHT22;6518;50.930;5.344;2023-04-26T06:59:41;7.30;81.60
12901;DHT22;6518;50.930;5.344;2023-04-26T07:02:08;7.40;81.60
12901;DHT22;6518;50.930;5.344;2023-04-26T07:04:35;7.40;81.50
12901;DHT22;6518;50.930;5.344;2023-04-26T07:07:03;7.50;80.70
12901;DHT22;6518;50.930;5.344;2023-04-26T07:09:31;7.50;80.40
12901;DHT22;6518;50.930;5.344;2023-04-26T07:11:57;7.60;80.20
12901;DHT22;6518;50.930;5.344;2023-04-26T07:14:24;7.60;79.50
12901;DHT22;6518;50.930;5.344;2023-04-26T07:16:51;7.70;79.40
12901;DHT22;6518;50.930;5.344;2023-04-26T07:19:18;7.70;79.10
12901;DHT22;6518;50.930;5.344;2023-04-26T07:21:45;7.80;80.20
12901;DHT22;6518;50.930;5.344;2023-04-26T07:24:13;7.80;79.90
12901;DHT22;6518;50.930;5.344;2023-04-26T07:26:40;7.90;79.60
12901;DHT22;6518;50.930;5.344;2023-04-26T07:29:07;8.00;79.20
12901;DHT22;6518;50.930;5.344;2023-04-26T07:31:35;8.00;79.20
12901;DHT22;6518;50.930;5.344;2023-04-26T07:34:02;8.00;78.90
12901;DHT22;6518;50.930;5.344;2023-04-26T07:36:28;8.00;78.90
12901;DHT22;6518;50.930;5.344;2023-04-26T07:38:56;8.10;78.70
12901;DHT22;6518;50.930;5.344;2023-04-26T07:41:24;8.10;78.20
12901;DHT22;6518;50.930;5.344;2023-04-26T07:43:51;8.20;77.30
12901;DHT22;6518;50.930;5.344;2023-04-26T07:46:18;8.30;78.10
12901;DHT22;6518;50.930;5.344;2023-04-26T07:48:45;8.30;77.30
12901;DHT22;6518;50.930;5.344;2023-04-26T07:51:12;8.40;77.10
12901;DHT22;6518;50.930;5.344;2023-04-26T07:53:40;8.40;76.50
12901;DHT22;6518;50.930;5.344;2023-04-26T07:56:07;8.50;76.20
12901;DHT22;6518;50.930;5.344;2023-04-26T07:58:36;8.50;75.50
12901;DHT22;6518;50.930;5.344;2023-04-26T08:01:03;8.60;74.60
12901;DHT22;6518;50.930;5.344;2023-04-26T08:03:30;8.60;74.50
12901;DHT22;6518;50.930;5.344;2023-04-26T08:05:57;8.70;75.80
12901;DHT22;6518;50.930;5.344;2023-04-26T08:08:25;8.80;75.10
12901;DHT22;6518;50.930;5.344;2023-04-26T08:10:53;8.90;75.90
12901;DHT22;6518;50.930;5.344;2023-04-26T08:13:20;9.00;74.70
12901;DHT22;6518;50.930;5.344;2023-04-26T08:15:48;9.00;73.80
12901;DHT22;6518;50.930;5.344;2023-04-26T08:18:15;9.00;73.80
12901;DHT22;6518;50.930;5.344;2023-04-26T08:20:42;9.00;73.80
12901;DHT22;6518;50.930;5.344;2023-04-26T08:23:09;9.10;73.30
12901;DHT22;6518;50.930;5.344;2023-04-26T08:25:37;9.10;72.80
12901;DHT22;6518;50.930;5.344;2023-04-26T08:28:04;9.20;72.00
12901;DHT22;6518;50.930;5.344;2023-04-26T08:30:32;9.40;71.60
12901;DHT22;6518;50.930;5.344;2023-04-26T08:33:01;9.40;71.60
12901;DHT22;6518;50.930;5.344;2023-04-26T08:35:29;9.50;70.80
12901;DHT22;6518;50.930;5.344;2023-04-26T08:37:56;9.60;68.90
12901;DHT22;6518;50.930;5.344;2023-04-26T08:40:23;9.70;67.30
12901;DHT22;6518;50.930;5.344;2023-04-26T08:42:51;9.70;67.00
12901;DHT22;6518;50.930;5.344;2023-04-26T08:45:20;9.80;66.90
12901;DHT22;6518;50.930;5.344;2023-04-26T08:47:48;9.80;66.00
12901;DHT22;6518;50.930;5.344;2023-04-26T08:50:18;10.00;65.80
12901;DHT22;6518;50.930;5.344;2023-04-26T08:52:47;10.00;66.50
12901;DHT22;6518;50.930;5.344;2023-04-26T08:55:15;10.00;66.80
12901;DHT22;6518;50.930;5.344;2023-04-26T08:57:44;10.00;66.20
12901;DHT22;6518;50.930;5.344;2023-04-26T09:00:12;9.90;66.00
12901;DHT22;6518;50.930;5.344;2023-04-26T09:02:42;9.90;66.00
12901;DHT22;6518;50.930;5.344;2023-04-26T09:05:11;9.90;65.70
12901;DHT22;6518;50.930;5.344;2023-04-26T09:07:44;9.90;65.10
12901;DHT22;6518;50.930;5.344;2023-04-26T09:10:12;9.90;65.60
12901;DHT22;6518;50.930;5.344;2023-04-26T09:12:39;9.90;65.90
12901;DHT22;6518;50.930;5.344;2023-04-26T09:15:07;9.90;66.60
12901;DHT22;6518;50.930;5.344;2023-04-26T09:17:35;9.80;66.80
12901;DHT22;6518;50.930;5.344;2023-04-26T09:20:17;9.80;67.00
12901;DHT22;6518;50.930;5.344;2023-04-26T09:22:46;9.80;67.00
12901;DHT22;6518;50.930;5.344;2023-04-26T09:25:17;9.80;66.50
12901;DHT22;6518;50.930;5.344;2023-04-26T09:27:44;9.90;66.00
12901;DHT22;6518;50.930;5.344;2023-04-26T09:30:13;9.90;66.00
12901;DHT22;6518;50.930;5.344;2023-04-26T09:32:52;10.00;65.60
12901;DHT22;6518;50.930;5.344;2023-04-26T09:35:22;10.00;64.20
12901;DHT22;6518;50.930;5.344;2023-04-26T09:37:56;10.00;65.00
12901;DHT22;6518;50.930;5.344;2023-04-26T09:40:25;10.10;64.70
12901;DHT22;6518;50.930;5.344;2023-04-26T09:43:01;10.10;63.20
12901;DHT22;6518;50.930;5.344;2023-04-26T09:45:30;10.10;64.30
12901;DHT22;6518;50.930;5.344;2023-04-26T09:48:13;10.20;63.90
12901;DHT22;6518;50.930;5.344;2023-04-26T09:50:42;10.30;62.60
12901;DHT22;6518;50.930;5.344;2023-04-26T09:53:12;10.30;62.70
12901;DHT22;6518;50.930;5.344;2023-04-26T09:55:50;10.30;62.80
12901;DHT22;6518;50.930;5.344;2023-04-26T09:58:17;10.30;62.20
12901;DHT22;6518;50.930;5.344;2023-04-26T10:00:45;10.30;62.50
12901;DHT22;6518;50.930;5.344;2023-04-26T10:03:17;10.30;61.50
12901;DHT22;6518;50.930;5.344;2023-04-26T10:05:45;10.30;59.00
12901;DHT22;6518;50.930;5.344;2023-04-26T10:08:14;10.30;58.80
12901;DHT22;6518;50.930;5.344;2023-04-26T10:10:41;10.20;59.20
12901;DHT22;6518;50.930;5.344;2023-04-26T10:13:10;10.20;59.60
12901;DHT22;6518;50.930;5.344;2023-04-26T10:15:38;10.30;59.60
12901;DHT22;6518;50.930;5.344;2023-04-26T10:18:05;10.40;59.20
12901;DHT22;6518;50.930;5.344;2023-04-26T10:20:33;10.40;58.90
12901;DHT22;6518;50.930;5.344;2023-04-26T10:23:01;10.40;57.60
12901;DHT22;6518;50.930;5.344;2023-04-26T10:25:37;10.50;57.10
12901;DHT22;6518;50.930;5.344;2023-04-26T10:28:04;10.60;56.70
12901;DHT22;6518;50.930;5.344;2023-04-26T10:30:32;10.60;56.20
12901;DHT22;6518;50.930;5.344;2023-04-26T10:33:14;10.70;56.20
12901;DHT22;6518;50.930;5.344;2023-04-26T10:36:10;10.80;55.60
12901;DHT22;6518;50.930;5.344;2023-04-26T10:38:39;10.90;55.80
12901;DHT22;6518;50.930;5.344;2023-04-26T10:41:32;11.10;55.10
12901;DHT22;6518;50.930;5.344;2023-04-26T10:47:00;11.50;55.80
12901;DHT22;6518;50.930;5.344;2023-04-26T10:49:27;11.70;55.70
12901;DHT22;6518;50.930;5.344;2023-04-26T10:52:13;11.90;54.70
12901;DHT22;6518;50.930;5.344;2023-04-26T10:54:48;12.00;54.30
12901;DHT22;6518;50.930;5.344;2023-04-26T10:57:17;12.00;53.70
12901;DHT22;6518;50.930;5.344;2023-04-26T11:02:56;12.30;53.20
12901;DHT22;6518;50.930;5.344;2023-04-26T11:05:48;12.40;53.20
12901;DHT22;6518;50.930;5.344;2023-04-26T11:08:18;12.40;53.20
12901;DHT22;6518;50.930;5.344;2023-04-26T11:10:49;12.60;53.10
12901;DHT22;6518;50.930;5.344;2023-04-26T11:13:19;12.60;52.70
12901;DHT22;6518;50.930;5.344;2023-04-26T11:15:46;12.70;52.90
12901;DHT22;6518;50.930;5.344;2023-04-26T11:18:18;12.70;52.20
12901;DHT22;6518;50.930;5.344;2023-04-26T11:20:45;12.80;52.90
12901;DHT22;6518;50.930;5.344;2023-04-26T11:23:12;12.80;53.30
12901;DHT22;6518;50.930;5.344;2023-04-26T11:25:39;12.90;52.70
12901;DHT22;6518;50.930;5.344;2023-04-26T11:28:06;12.90;51.70
12901;DHT22;6518;50.930;5.344;2023-04-26T11:30:35;12.90;50.70
12901;DHT22;6518;50.930;5.344;2023-04-26T11:33:02;13.30;50.90
12901;DHT22;6518;50.930;5.344;2023-04-26T11:35:32;12.70;51.70
12901;DHT22;6518;50.930;5.344;2023-04-26T11:38:02;12.50;50.90
12901;DHT22;6518;50.930;5.344;2023-04-26T11:40:30;12.40;51.80
12901;DHT22;6518;50.930;5.344;2023-04-26T11:42:59;12.30;51.50
12901;DHT22;6518;50.930;5.344;2023-04-26T11:45:27;12.30;51.30
12901;DHT22;6518;50.930;5.344;2023-04-26T11:47:56;12.20;51.60
12901;DHT22;6518;50.930;5.344;2023-04-26T11:50:24;12.10;51.90
12901;DHT22;6518;50.930;5.344;2023-04-26T11:52:54;12.00;51.70
12901;DHT22;6518;50.930;5.344;2023-04-26T11:55:23;11.90;53.00
12901;DHT22;6518;50.930;5.344;2023-04-26T11:57:53;12.00;52.30
12901;DHT22;6518;50.930;5.344;2023-04-26T12:00:21;11.80;52.40
12901;DHT22;6518;50.930;5.344;2023-04-26T12:02:48;11.70;52.50
12901;DHT22;6518;50.930;5.344;2023-04-26T12:05:28;11.80;51.90
12901;DHT22;6518;50.930;5.344;2023-04-26T12:07:57;11.90;51.00
12901;DHT22;6518;50.930;5.344;2023-04-26T12:10:26;12.00;50.60
12901;DHT22;6518;50.930;5.344;2023-04-26T12:12:55;12.10;50.00
12901;DHT22;6518;50.930;5.344;2023-04-26T12:15:28;12.10;50.00
12901;DHT22;6518;50.930;5.344;2023-04-26T12:17:57;12.30;49.90
12901;DHT22;6518;50.930;5.344;2023-04-26T12:20:33;12.30;50.80
12901;DHT22;6518;50.930;5.344;2023-04-26T12:23:03;12.40;50.20
12901;DHT22;6518;50.930;5.344;2023-04-26T12:25:30;12.40;50.50
12901;DHT22;6518;50.930;5.344;2023-04-26T12:27:58;12.50;51.00
12901;DHT22;6518;50.930;5.344;2023-04-26T12:30:27;12.60;51.60
12901;DHT22;6518;50.930;5.344;2023-04-26T12:32:54;12.70;50.50
12901;DHT22;6518;50.930;5.344;2023-04-26T12:35:22;12.80;50.20
12901;DHT22;6518;50.930;5.344;2023-04-26T12:37:51;12.90;49.90
12901;DHT22;6518;50.930;5.344;2023-04-26T12:40:21;12.90;50.30
12901;DHT22;6518;50.930;5.344;2023-04-26T12:42:49;12.90;50.00
12901;DHT22;6518;50.930;5.344;2023-04-26T12:45:17;12.90;49.70
12901;DHT22;6518;50.930;5.344;2023-04-26T12:47:44;12.80;49.40
12901;DHT22;6518;50.930;5.344;2023-04-26T12:50:14;12.70;49.70
12901;DHT22;6518;50.930;5.344;2023-04-26T12:52:42;12.70;49.10
12901;DHT22;6518;50.930;5.344;2023-04-26T12:55:12;12.90;48.80
12901;DHT22;6518;50.930;5.344;2023-04-26T12:57:40;13.00;48.10
12901;DHT22;6518;50.930;5.344;2023-04-26T13:00:10;12.90;48.50
12901;DHT22;6518;50.930;5.344;2023-04-26T13:02:37;13.00;48.00
12901;DHT22;6518;50.930;5.344;2023-04-26T13:05:06;13.10;48.30
12901;DHT22;6518;50.930;5.344;2023-04-26T13:07:33;13.20;47.70
12901;DHT22;6518;50.930;5.344;2023-04-26T13:10:02;13.20;47.30
12901;DHT22;6518;50.930;5.344;2023-04-26T13:12:30;13.40;47.00
12901;DHT22;6518;50.930;5.344;2023-04-26T13:14:58;13.50;46.30
12901;DHT22;6518;50.930;5.344;2023-04-26T13:17:25;13.60;46.00
12901;DHT22;6518;50.930;5.344;2023-04-26T13:19:52;13.70;44.10
12901;DHT22;6518;50.930;5.344;2023-04-26T13:22:20;13.70;44.40
12901;DHT22;6518;50.930;5.344;2023-04-26T13:24:46;13.80;44.10
12901;DHT22;6518;50.930;5.344;2023-04-26T13:27:13;13.90;44.60
12901;DHT22;6518;50.930;5.344;2023-04-26T13:29:42;14.10;44.70
12901;DHT22;6518;50.930;5.344;2023-04-26T13:32:09;14.20;44.40
12901;DHT22;6518;50.930;5.344;2023-04-26T13:34:35;14.20;44.90
12901;DHT22;6518;50.930;5.344;2023-04-26T13:37:02;14.20;44.90
12901;DHT22;6518;50.930;5.344;2023-04-26T13:39:29;14.20;45.40
12901;DHT22;6518;50.930;5.344;2023-04-26T13:41:58;14.30;45.20
12901;DHT22;6518;50.930;5.344;2023-04-26T13:44:26;14.20;44.60
12901;DHT22;6518;50.930;5.344;2023-04-26T13:46:55;14.20;44.80
12901;DHT22;6518;50.930;5.344;2023-04-26T13:49:22;14.10;46.20
12901;DHT22;6518;50.930;5.344;2023-04-26T13:51:51;14.20;45.30
12901;DHT22;6518;50.930;5.344;2023-04-26T13:54:18;14.20;45.90
12901;DHT22;6518;50.930;5.344;2023-04-26T13:56:46;14.20;46.70
12901;DHT22;6518;50.930;5.344;2023-04-26T13:59:13;14.00;46.80
12901;DHT22;6518;50.930;5.344;2023-04-26T14:01:40;13.90;46.40
12901;DHT22;6518;50.930;5.344;2023-04-26T14:04:08;13.80;46.50
12901;DHT22;6518;50.930;5.344;2023-04-26T14:06:36;13.80;46.40
12901;DHT22;6518;50.930;5.344;2023-04-26T14:09:04;13.80;45.90
12901;DHT22;6518;50.930;5.344;2023-04-26T14:11:31;13.80;46.50
12901;DHT22;6518;50.930;5.344;2023-04-26T14:13:58;13.90;46.70
12901;DHT22;6518;50.930;5.344;2023-04-26T14:16:25;14.00;46.60
12901;DHT22;6518;50.930;5.344;2023-04-26T14:18:52;14.20;45.90
12901;DHT22;6518;50.930;5.344;2023-04-26T14:21:21;14.30;45.70
12901;DHT22;6518;50.930;5.344;2023-04-26T14:23:48;14.30;46.10
12901;DHT22;6518;50.930;5.344;2023-04-26T14:26:15;14.30;45.50
12901;DHT22;6518;50.930;5.344;2023-04-26T14:28:42;14.30;46.30
12901;DHT22;6518;50.930;5.344;2023-04-26T14:31:09;14.30;46.40
12901;DHT22;6518;50.930;5.344;2023-04-26T14:33:37;14.30;46.20
12901;DHT22;6518;50.930;5.344;2023-04-26T14:36:05;14.20;47.00
12901;DHT22;6518;50.930;5.344;2023-04-26T14:38:34;14.20;46.50
12901;DHT22;6518;50.930;5.344;2023-04-26T14:41:01;14.20;46.40
12901;DHT22;6518;50.930;5.344;2023-04-26T14:43:28;14.10;46.20
12901;DHT22;6518;50.930;5.344;2023-04-26T14:45:55;14.00;46.60
12901;DHT22;6518;50.930;5.344;2023-04-26T14:48:22;14.00;46.60
12901;DHT22;6518;50.930;5.344;2023-04-26T14:50:49;13.90;46.70
12901;DHT22;6518;50.930;5.344;2023-04-26T14:53:15;13.80;47.10
12901;DHT22;6518;50.930;5.344;2023-04-26T14:55:44;13.80;46.90
12901;DHT22;6518;50.930;5.344;2023-04-26T14:58:11;13.80;46.90
12901;DHT22;6518;50.930;5.344;2023-04-26T15:00:38;13.80;47.50
12901;DHT22;6518;50.930;5.344;2023-04-26T15:03:05;13.90;47.00
12901;DHT22;6518;50.930;5.344;2023-04-26T15:05:32;13.90;47.50
12901;DHT22;6518;50.930;5.344;2023-04-26T15:07:58;13.90;47.50
12901;DHT22;6518;50.930;5.344;2023-04-26T15:10:25;13.90;47.20
12901;DHT22;6518;50.930;5.344;2023-04-26T15:12:53;13.70;47.70
12901;DHT22;6518;50.930;5.344;2023-04-26T15:15:21;13.80;47.60
12901;DHT22;6518;50.930;5.344;2023-04-26T15:17:48;13.70;48.40
12901;DHT22;6518;50.930;5.344;2023-04-26T15:20:15;13.70;47.60
12901;DHT22;6518;50.930;5.344;2023-04-26T15:22:42;13.70;47.70
12901;DHT22;6518;50.930;5.344;2023-04-26T15:25:10;13.70;47.30
12901;DHT22;6518;50.930;5.344;2023-04-26T15:27:37;13.00;46.90
12901;DHT22;6518;50.930;5.344;2023-04-26T15:30:06;13.70;47.20
12901;DHT22;6518;50.930;5.344;2023-04-26T15:32:34;13.70;47.80
12901;DHT22;6518;50.930;5.344;2023-04-26T15:35:01;13.80;47.80
12901;DHT22;6518;50.930;5.344;2023-04-26T15:37:28;13.90;47.20
12901;DHT22;6518;50.930;5.344;2023-04-26T15:39:56;13.80;47.20
12901;DHT22;6518;50.930;5.344;2023-04-26T15:42:23;13.70;48.00
12901;DHT22;6518;50.930;5.344;2023-04-26T15:44:49;13.70;47.70
12901;DHT22;6518;50.930;5.344;2023-04-26T15:47:18;13.70;47.30
12901;DHT22;6518;50.930;5.344;2023-04-26T15:49:45;13.70;47.30
12901;DHT22;6518;50.930;5.344;2023-04-26T15:52:11;13.80;46.80
12901;DHT22;6518;50.930;5.344;2023-04-26T15:54:38;13.80;47.40
12901;DHT22;6518;50.930;5.344;2023-04-26T15:57:05;13.90;48.50
12901;DHT22;6518;50.930;5.344;2023-04-26T15:59:32;14.10;47.80
12901;DHT22;6518;50.930;5.344;2023-04-26T16:01:59;14.20;47.00
12901;DHT22;6518;50.930;5.344;2023-04-26T16:04:27;14.30;47.00
12901;DHT22;6518;50.930;5.344;2023-04-26T16:06:54;14.50;46.30